createdAt,value
2023-03-15T00:00:56.059Z,0.40
2023-03-15T00:03:26.757Z,0.35
2023-03-15T00:05:53.987Z,0.63
2023-03-15T00:08:21.963Z,0.70
2023-03-15T00:10:49.293Z,0.63
2023-03-15T00:13:18.192Z,0.40
2023-03-15T00:15:46.996Z,0.90
2023-03-15T00:18:14.599Z,0.70
2023-03-15T00:20:42.088Z,0.88
2023-03-15T00:23:09.804Z,0.80
2023-03-15T00:25:37.536Z,0.68
2023-03-15T00:28:04.973Z,0.73
2023-03-15T00:30:33.036Z,0.90
2023-03-15T00:33:00.293Z,0.85
2023-03-15T00:35:27.504Z,0.93
2023-03-15T00:37:56.001Z,0.80
2023-03-15T00:40:24.040Z,0.82
2023-03-15T00:42:51.653Z,0.82
2023-03-15T00:45:22.412Z,1.00
2023-03-15T00:47:53.474Z,0.90
2023-03-15T00:50:22.229Z,0.80
2023-03-15T00:52:49.815Z,1.20
2023-03-15T00:55:18.163Z,1.10
2023-03-15T00:57:46.109Z,1.10
2023-03-15T01:00:15.392Z,0.90
2023-03-15T01:02:42.732Z,1.10
2023-03-15T01:05:10.877Z,0.90
2023-03-15T01:07:38.172Z,1.20
2023-03-15T01:10:06.232Z,0.70
2023-03-15T01:12:34.180Z,0.90
2023-03-15T01:15:01.904Z,0.90
2023-03-15T01:17:29.126Z,0.90
2023-03-15T01:19:56.335Z,0.82
2023-03-15T01:22:23.568Z,1.20
2023-03-15T01:24:50.877Z,1.48
2023-03-15T01:27:19.277Z,1.20
2023-03-15T01:29:46.546Z,1.30
2023-03-15T01:32:15.015Z,1.70
2023-03-15T01:34:43.273Z,1.65
2023-03-15T01:37:14.486Z,1.60
2023-03-15T01:39:44.306Z,1.40
2023-03-15T01:42:12.045Z,1.17
2023-03-15T01:44:49.118Z,1.45
2023-03-15T01:47:16.983Z,1.60
2023-03-15T01:49:45.367Z,1.10
2023-03-15T01:52:14.346Z,1.60
2023-03-15T01:54:52.212Z,1.55
2023-03-15T01:57:22.863Z,1.90
2023-03-15T01:59:56.419Z,1.25
2023-03-15T02:02:23.986Z,1.20
2023-03-15T02:05:00.837Z,1.30
2023-03-15T02:07:34.591Z,1.30
2023-03-15T02:10:05.711Z,1.17
2023-03-15T02:12:37.174Z,1.30
2023-03-15T02:15:05.875Z,1.27
2023-03-15T02:17:41.194Z,1.23
2023-03-15T02:20:14.622Z,1.10
2023-03-15T02:22:42.831Z,1.27
2023-03-15T02:25:19.238Z,1.27
2023-03-15T02:27:46.488Z,1.30
2023-03-15T02:30:15.436Z,1.15
2023-03-15T02:32:42.760Z,1.40
2023-03-15T02:35:10.331Z,1.08
2023-03-15T02:37:37.619Z,1.08
2023-03-15T02:40:12.378Z,1.20
2023-03-15T02:42:39.965Z,1.10
2023-03-15T02:45:07.469Z,1.50
2023-03-15T02:47:34.804Z,1.15
2023-03-15T02:50:02.687Z,1.20
2023-03-15T02:52:29.932Z,1.25
2023-03-15T02:54:57.182Z,1.05
2023-03-15T02:57:24.538Z,1.15
2023-03-15T02:59:55.015Z,0.90
2023-03-15T03:02:22.439Z,1.20
2023-03-15T03:04:49.689Z,1.10
2023-03-15T03:07:19.261Z,1.17
2023-03-15T03:09:54.048Z,0.77
2023-03-15T03:12:22.073Z,1.02
2023-03-15T03:14:49.342Z,1.17
2023-03-15T03:17:19.292Z,0.88
2023-03-15T03:19:46.625Z,0.90
2023-03-15T03:22:16.214Z,1.10
2023-03-15T03:24:45.917Z,1.00
2023-03-15T03:27:17.493Z,0.93
2023-03-15T03:29:46.904Z,1.08
2023-03-15T03:32:14.760Z,0.88
2023-03-15T03:34:48.225Z,1.20
2023-03-15T03:37:20.137Z,0.90
2023-03-15T03:39:55.923Z,1.17
2023-03-15T03:42:23.184Z,0.80
2023-03-15T03:44:50.696Z,1.20
2023-03-15T03:47:19.552Z,1.00
2023-03-15T03:49:46.838Z,1.00
2023-03-15T03:52:14.140Z,0.90
2023-03-15T03:54:42.757Z,0.80
2023-03-15T03:57:11.388Z,1.05
2023-03-15T03:59:39.526Z,0.90
2023-03-15T04:02:06.957Z,1.23
2023-03-15T04:04:35.501Z,1.23
2023-03-15T04:07:03.687Z,0.93
2023-03-15T04:09:37.714Z,0.95
2023-03-15T04:12:06.571Z,1.17
2023-03-15T04:14:35.147Z,1.15
2023-03-15T04:17:04.860Z,1.00
2023-03-15T04:19:33.515Z,1.30
2023-03-15T04:22:06.550Z,1.55
2023-03-15T04:25:02.946Z,1.10
2023-03-15T04:27:43.326Z,1.35
2023-03-15T04:30:30.981Z,1.15
2023-03-15T04:33:11.262Z,1.00
2023-03-15T04:36:18.573Z,1.17
2023-03-15T04:39:07.066Z,0.90
2023-03-15T04:41:44.781Z,1.35
2023-03-15T04:44:29.954Z,1.00
2023-03-15T04:47:17.457Z,1.15
2023-03-15T04:50:03.901Z,1.10
2023-03-15T04:52:45.464Z,1.13
2023-03-15T04:55:48.141Z,1.10
2023-03-15T04:58:33.907Z,0.77
2023-03-15T05:01:01.152Z,1.10
2023-03-15T05:03:51.433Z,1.35
2023-03-15T05:06:30.884Z,1.40
2023-03-15T05:09:17.933Z,1.30
2023-03-15T05:12:11.946Z,1.02
2023-03-15T05:15:05.749Z,1.23
2023-03-15T05:17:56.014Z,1.63
2023-03-15T05:23:18.433Z,0.95
2023-03-15T05:26:08.697Z,1.27
2023-03-15T05:29:13.037Z,1.30
2023-03-15T05:32:09.844Z,1.23
2023-03-15T05:34:54.560Z,1.58
2023-03-15T05:37:42.411Z,1.10
2023-03-15T05:40:30.232Z,1.10
2023-03-15T05:43:17.797Z,1.13
2023-03-15T05:46:05.386Z,1.38
2023-03-15T05:48:54.418Z,1.20
2023-03-15T05:51:30.741Z,1.30
2023-03-15T05:54:03.750Z,1.63
2023-03-15T05:56:30.951Z,1.50
2023-03-15T05:59:16.671Z,1.30
2023-03-15T06:02:19.143Z,1.45
2023-03-15T06:04:59.714Z,1.42
2023-03-15T06:07:27.900Z,1.52
2023-03-15T06:09:55.126Z,1.40
2023-03-15T06:12:22.339Z,1.55
2023-03-15T06:14:49.941Z,1.27
2023-03-15T06:17:17.130Z,1.75
2023-03-15T06:19:45.342Z,1.30
2023-03-15T06:22:12.590Z,1.10
2023-03-15T06:24:49.740Z,1.42
2023-03-15T06:27:22.085Z,1.88
2023-03-15T06:29:50.902Z,1.55
2023-03-15T06:32:21.070Z,1.55
2023-03-15T06:34:48.395Z,1.25
2023-03-15T06:37:22.779Z,1.30
2023-03-15T06:39:54.420Z,1.30
2023-03-15T06:42:21.672Z,1.90
2023-03-15T06:44:51.137Z,1.77
2023-03-15T06:47:19.317Z,1.70
2023-03-15T06:49:50.366Z,1.30
2023-03-15T06:52:18.990Z,1.48
2023-03-15T06:54:46.274Z,1.50
2023-03-15T06:57:13.532Z,1.70
2023-03-15T06:59:40.766Z,1.80
2023-03-15T07:02:13.908Z,1.35
2023-03-15T07:04:41.321Z,1.75
2023-03-15T07:07:08.540Z,1.65
2023-03-15T07:09:35.791Z,1.70
2023-03-15T07:12:03.041Z,1.80
2023-03-15T07:14:30.249Z,1.48
2023-03-15T07:16:57.471Z,1.48
2023-03-15T07:19:24.747Z,1.40
2023-03-15T07:21:51.959Z,1.85
2023-03-15T07:24:19.302Z,1.50
2023-03-15T07:26:46.522Z,1.58
2023-03-15T07:29:13.722Z,1.65
2023-03-15T07:31:40.964Z,1.25
2023-03-15T07:34:08.267Z,2.13
2023-03-15T07:36:35.481Z,1.33
2023-03-15T07:39:02.747Z,2.10
2023-03-15T07:41:29.974Z,1.42
2023-03-15T07:44:06.598Z,1.30
2023-03-15T07:46:34.013Z,1.27
2023-03-15T07:49:01.609Z,1.70
2023-03-15T07:51:28.838Z,1.45
2023-03-15T07:53:56.090Z,1.27
2023-03-15T07:56:23.346Z,1.50
2023-03-15T07:58:50.578Z,1.45
2023-03-15T08:01:17.773Z,1.25
2023-03-15T08:03:44.970Z,1.52
2023-03-15T08:06:12.183Z,1.20
2023-03-15T08:08:40.458Z,1.00
2023-03-15T08:11:07.686Z,1.50
2023-03-15T08:13:35.122Z,2.00
2023-03-15T08:16:02.441Z,1.92
2023-03-15T08:18:29.801Z,1.77
2023-03-15T08:20:57.179Z,1.15
2023-03-15T08:23:24.439Z,1.30
2023-03-15T08:25:51.795Z,1.35
2023-03-15T08:28:19.101Z,1.10
2023-03-15T08:30:46.548Z,1.20
2023-03-15T08:33:13.780Z,1.20
2023-03-15T08:35:41.707Z,1.02
2023-03-15T08:38:09.736Z,1.38
2023-03-15T08:40:38.845Z,1.50
2023-03-15T08:43:07.015Z,1.48
2023-03-15T08:45:51.017Z,1.33
2023-03-15T08:48:21.592Z,1.17
2023-03-15T08:50:48.841Z,1.40
2023-03-15T08:53:16.126Z,1.52
2023-03-15T08:55:43.365Z,1.00
2023-03-15T08:58:12.726Z,1.20
2023-03-15T09:00:40.032Z,1.27
2023-03-15T09:03:07.247Z,1.02
2023-03-15T09:05:34.487Z,1.35
2023-03-15T09:08:01.948Z,1.30
2023-03-15T09:10:29.276Z,1.25
2023-03-15T09:12:56.516Z,0.85
2023-03-15T09:15:23.791Z,1.05
2023-03-15T09:17:51.799Z,1.08
2023-03-15T09:20:21.919Z,1.45
2023-03-15T09:22:53.490Z,1.13
2023-03-15T09:25:21.180Z,1.10
2023-03-15T09:27:48.401Z,1.25
2023-03-15T09:30:15.953Z,1.25
2023-03-15T09:32:44.142Z,1.00
2023-03-15T09:35:15.678Z,1.40
2023-03-15T09:37:43.127Z,1.33
2023-03-15T09:40:16.740Z,1.27
2023-03-15T09:43:02.818Z,1.67
2023-03-15T09:45:30.066Z,1.42
2023-03-15T09:48:08.844Z,1.40
2023-03-15T09:50:40.838Z,1.33
2023-03-15T09:53:27.905Z,1.60
2023-03-15T09:55:55.315Z,1.58
2023-03-15T09:58:26.767Z,1.13
2023-03-15T10:00:55.318Z,0.93
2023-03-15T10:03:35.889Z,1.45
2023-03-15T10:06:06.340Z,1.10
2023-03-15T10:08:34.385Z,1.10
2023-03-15T10:11:10.019Z,1.20
2023-03-15T10:14:02.497Z,1.00
2023-03-15T10:16:35.716Z,1.52
2023-03-15T10:19:07.155Z,1.20
2023-03-15T10:21:34.387Z,1.10
2023-03-15T10:24:05.642Z,1.10
2023-03-15T10:26:37.145Z,0.90
2023-03-15T10:29:10.029Z,0.90
2023-03-15T10:31:44.644Z,0.93
2023-03-15T10:34:12.691Z,0.80
2023-03-15T10:36:44.979Z,1.05
2023-03-15T10:39:13.120Z,0.90
2023-03-15T10:41:42.226Z,0.60
2023-03-15T10:44:14.740Z,0.52
2023-03-15T10:46:42.054Z,0.70
2023-03-15T10:49:12.237Z,0.60
2023-03-15T10:51:49.292Z,0.90
2023-03-15T10:54:16.544Z,0.77
2023-03-15T10:56:56.110Z,0.82
2023-03-15T10:59:24.600Z,0.57
2023-03-15T11:01:53.061Z,0.90
2023-03-15T11:04:21.938Z,0.80
2023-03-15T11:06:52.216Z,1.13
2023-03-15T11:09:22.815Z,1.10
2023-03-15T11:11:52.253Z,1.00
2023-03-15T11:14:19.817Z,0.88
2023-03-15T11:16:55.311Z,0.90
2023-03-15T11:19:24.302Z,0.90
2023-03-15T11:21:52.181Z,1.00
2023-03-15T11:24:39.696Z,0.95
2023-03-15T11:27:15.301Z,1.20
2023-03-15T11:29:52.525Z,1.10
2023-03-15T11:32:21.638Z,1.00
2023-03-15T11:34:54.934Z,0.73
2023-03-15T11:37:39.155Z,1.00
2023-03-15T11:40:19.109Z,0.90
2023-03-15T11:42:58.579Z,0.80
2023-03-15T11:45:36.610Z,0.82
2023-03-15T11:48:36.481Z,0.70
2023-03-15T11:51:03.746Z,0.88
2023-03-15T11:53:33.739Z,0.93
2023-03-15T11:56:19.782Z,0.82
2023-03-15T11:59:04.029Z,0.90
2023-03-15T12:01:31.298Z,0.80
2023-03-15T12:04:17.222Z,1.02
2023-03-15T12:06:44.476Z,0.77
2023-03-15T12:09:30.549Z,0.73
2023-03-15T12:11:59.275Z,0.77
2023-03-15T12:14:30.726Z,1.35
2023-03-15T12:17:16.539Z,0.70
2023-03-15T12:19:43.795Z,0.80
2023-03-15T12:22:18.192Z,0.75
2023-03-15T12:24:46.619Z,0.57
2023-03-15T12:27:21.335Z,0.90
2023-03-15T12:29:51.050Z,0.70
2023-03-15T12:32:19.046Z,0.68
2023-03-15T12:35:12.390Z,0.70
2023-03-15T12:37:40.538Z,0.77
2023-03-15T12:40:18.932Z,0.90
2023-03-15T12:42:49.328Z,0.88
2023-03-15T12:45:19.526Z,0.57
2023-03-15T12:47:52.805Z,1.00
2023-03-15T12:50:39.529Z,0.75
2023-03-15T12:53:26.600Z,0.80
2023-03-15T12:55:59.475Z,0.88
2023-03-15T12:58:35.456Z,0.82
2023-03-15T13:01:05.380Z,0.70
2023-03-15T13:03:34.857Z,1.02
2023-03-15T13:06:08.649Z,0.90
2023-03-15T13:09:26.808Z,0.90
2023-03-15T13:11:54.077Z,0.80
2023-03-15T13:14:24.318Z,0.90
2023-03-15T13:16:54.911Z,1.05
2023-03-15T13:19:32.856Z,0.98
2023-03-15T13:22:04.273Z,0.80
2023-03-15T13:24:35.777Z,0.90
2023-03-15T13:27:12.428Z,0.98
2023-03-15T13:29:39.673Z,1.10
2023-03-15T13:32:13.665Z,1.48
2023-03-15T13:34:41.094Z,0.80
2023-03-15T13:37:14.260Z,0.47
2023-03-15T13:39:52.862Z,1.00
2023-03-15T13:42:24.065Z,0.70
2023-03-15T13:45:07.041Z,0.73
2023-03-15T13:47:37.481Z,0.70
2023-03-15T13:50:07.915Z,0.70
2023-03-15T13:52:35.194Z,0.95
2023-03-15T13:55:03.244Z,0.90
2023-03-15T13:57:30.506Z,0.70
2023-03-15T14:00:00.734Z,0.95
2023-03-15T14:02:33.204Z,0.90
2023-03-15T14:05:05.327Z,0.85
2023-03-15T14:07:40.618Z,0.73
2023-03-15T14:10:31.400Z,0.82
2023-03-15T14:12:59.606Z,0.75
2023-03-15T14:15:35.938Z,0.73
2023-03-15T14:18:04.875Z,0.90
2023-03-15T14:20:35.310Z,0.93
2023-03-15T14:23:03.938Z,1.08
2023-03-15T14:25:34.692Z,1.00
2023-03-15T14:28:02.593Z,0.98
2023-03-15T14:30:30.315Z,0.70
2023-03-15T14:33:00.016Z,0.73
2023-03-15T14:35:31.338Z,0.82
2023-03-15T14:38:02.542Z,0.80
2023-03-15T14:40:34.874Z,0.77
2023-03-15T14:43:06.192Z,0.70
2023-03-15T14:45:34.105Z,0.73
2023-03-15T14:48:04.890Z,0.60
2023-03-15T14:50:35.173Z,0.80
2023-03-15T14:53:02.733Z,0.60
2023-03-15T14:55:33.406Z,1.10
2023-03-15T14:58:00.918Z,0.60
2023-03-15T15:00:28.752Z,0.90
2023-03-15T15:02:56.757Z,0.70
2023-03-15T15:05:23.972Z,0.80
2023-03-15T15:07:55.126Z,0.82
2023-03-15T15:10:26.037Z,0.90
2023-03-15T15:13:04.901Z,0.77
2023-03-15T15:15:43.792Z,0.70
2023-03-15T15:18:18.969Z,0.70
2023-03-15T15:20:46.474Z,0.73
2023-03-15T15:23:18.159Z,0.90
2023-03-15T15:25:46.754Z,0.80
2023-03-15T15:28:27.353Z,0.85
2023-03-15T15:31:00.819Z,0.90
2023-03-15T15:33:28.076Z,0.80
2023-03-15T15:35:56.510Z,0.70
2023-03-15T15:38:38.902Z,0.80
2023-03-15T15:41:11.806Z,0.90
2023-03-15T15:43:39.038Z,0.60
2023-03-15T15:46:06.423Z,1.00
2023-03-15T15:48:34.737Z,0.88
2023-03-15T15:51:02.060Z,0.70
2023-03-15T15:53:31.243Z,0.70
2023-03-15T15:55:58.548Z,1.00
2023-03-15T15:58:26.011Z,0.93
2023-03-15T16:00:53.265Z,0.70
2023-03-15T16:03:20.629Z,0.80
2023-03-15T16:05:47.853Z,1.50
2023-03-15T16:08:20.831Z,1.40
2023-03-15T16:10:48.080Z,1.27
2023-03-15T16:13:15.583Z,1.20
2023-03-15T16:15:42.908Z,1.20
2023-03-15T16:18:10.803Z,1.05
2023-03-15T16:20:38.506Z,1.17
2023-03-15T16:23:06.292Z,1.10
2023-03-15T16:25:35.793Z,0.70
2023-03-15T16:30:32.217Z,1.05
2023-03-15T16:32:59.603Z,0.80
2023-03-15T16:35:35.199Z,0.93
2023-03-15T16:38:05.823Z,0.98
2023-03-15T16:40:34.298Z,1.20
2023-03-15T16:43:01.667Z,1.05
2023-03-15T16:45:29.197Z,0.80
2023-03-15T16:47:56.658Z,1.00
2023-03-15T16:50:24.073Z,0.98
2023-03-15T16:52:53.059Z,0.60
2023-03-15T16:55:23.771Z,1.00
2023-03-15T16:57:50.997Z,0.82
2023-03-15T17:00:20.163Z,0.90
2023-03-15T17:02:49.019Z,1.10
2023-03-15T17:05:21.144Z,0.90
2023-03-15T17:07:49.751Z,1.20
2023-03-15T17:10:21.417Z,0.90
2023-03-15T17:12:49.249Z,1.02
2023-03-15T17:15:17.454Z,1.00
2023-03-15T17:17:44.924Z,1.17
2023-03-15T17:20:13.033Z,0.80
2023-03-15T17:22:44.352Z,1.67
2023-03-15T17:25:11.900Z,0.90
2023-03-15T17:27:41.082Z,0.98
2023-03-15T17:30:15.186Z,0.65
2023-03-15T17:32:42.543Z,1.00
2023-03-15T17:35:10.142Z,0.80
2023-03-15T17:37:37.639Z,0.82
2023-03-15T17:40:12.194Z,1.10
2023-03-15T17:42:39.807Z,0.90
2023-03-15T17:45:15.726Z,1.10
2023-03-15T17:47:43.062Z,1.17
2023-03-15T17:50:11.404Z,0.90
2023-03-15T17:52:39.476Z,1.10
2023-03-15T17:55:08.948Z,0.90
2023-03-15T17:57:40.452Z,1.30
2023-03-15T18:00:11.443Z,0.90
2023-03-15T18:02:43.403Z,0.93
2023-03-15T18:05:21.522Z,0.88
2023-03-15T18:07:58.614Z,0.90
2023-03-15T18:10:29.336Z,1.00
2023-03-15T18:12:57.112Z,1.00
2023-03-15T18:15:24.705Z,0.90
2023-03-15T18:17:52.091Z,0.85
2023-03-15T18:20:22.404Z,1.00
2023-03-15T18:22:50.934Z,0.80
2023-03-15T18:25:20.242Z,1.20
2023-03-15T18:27:48.447Z,1.45
2023-03-15T18:30:18.133Z,1.05
2023-03-15T18:32:45.527Z,1.10
2023-03-15T18:35:23.729Z,0.80
2023-03-15T18:37:51.055Z,1.08
2023-03-15T18:40:19.592Z,0.90
2023-03-15T18:42:46.978Z,0.90
2023-03-15T18:45:18.925Z,1.45
2023-03-15T18:47:46.179Z,0.90
2023-03-15T18:50:14.559Z,0.85
2023-03-15T18:55:12.104Z,1.30
2023-03-15T18:57:42.976Z,1.27
2023-03-15T19:00:13.678Z,1.73
2023-03-15T19:02:42.393Z,1.52
2023-03-15T19:05:10.519Z,1.70
2023-03-15T19:07:38.581Z,2.13
2023-03-15T19:10:07.172Z,2.67
2023-03-15T19:12:34.558Z,2.60
2023-03-15T19:15:01.911Z,2.60
2023-03-15T19:17:29.288Z,2.67
2023-03-15T19:19:56.502Z,2.30
2023-03-15T19:22:24.179Z,3.92
2023-03-15T19:24:51.392Z,4.13
2023-03-15T19:27:18.761Z,4.93
2023-03-15T19:29:45.981Z,3.90
2023-03-15T19:32:13.245Z,3.50
2023-03-15T19:34:40.480Z,3.00
2023-03-15T19:37:07.702Z,3.30
2023-03-15T19:39:34.918Z,3.03
2023-03-15T19:42:02.302Z,3.35
2023-03-15T19:44:30.916Z,2.45
2023-03-15T19:46:58.331Z,2.63
2023-03-15T19:49:25.629Z,2.28
2023-03-15T19:51:52.989Z,1.90
2023-03-15T19:54:20.195Z,2.30
2023-03-15T19:56:48.650Z,2.40
2023-03-15T19:59:16.031Z,2.17
2023-03-15T20:01:43.359Z,2.08
2023-03-15T20:04:11.012Z,1.90
2023-03-15T20:06:39.098Z,1.80
2023-03-15T20:09:06.328Z,1.90
2023-03-15T20:11:33.680Z,2.25
2023-03-15T20:14:02.204Z,1.70
2023-03-15T20:16:29.676Z,1.85
2023-03-15T20:18:56.978Z,1.90
2023-03-15T20:21:24.271Z,1.80
2023-03-15T20:23:51.553Z,2.00
2023-03-15T20:26:19.078Z,2.30
2023-03-15T20:28:47.190Z,2.60
2023-03-15T20:31:15.959Z,2.38
2023-03-15T20:33:43.969Z,2.25
2023-03-15T20:36:11.442Z,2.72
2023-03-15T20:38:38.876Z,2.75
2023-03-15T20:41:06.627Z,2.50
2023-03-15T20:43:34.032Z,2.58
2023-03-15T20:46:02.040Z,2.95
2023-03-15T20:48:29.914Z,2.78
2023-03-15T20:51:03.817Z,2.70
2023-03-15T20:53:32.205Z,2.70
2023-03-15T20:55:59.449Z,3.13
2023-03-15T20:58:27.247Z,3.13
2023-03-15T21:01:11.789Z,2.88
2023-03-15T21:03:39.836Z,3.22
2023-03-15T21:06:07.857Z,2.97
2023-03-15T21:08:35.589Z,3.10
2023-03-15T21:11:04.765Z,3.13
2023-03-15T21:13:32.888Z,3.30
2023-03-15T21:16:04.903Z,3.50
2023-03-15T21:18:33.763Z,3.20
2023-03-15T21:21:02.874Z,3.15
2023-03-15T21:23:34.086Z,3.10
2023-03-15T21:26:03.463Z,3.13
2023-03-15T21:28:31.537Z,3.30
2023-03-15T21:30:59.551Z,3.50
2023-03-15T21:33:28.426Z,3.40
2023-03-15T21:35:56.431Z,3.30
2023-03-15T21:38:24.262Z,3.58
2023-03-15T21:41:00.694Z,3.20
2023-03-15T21:43:29.267Z,3.25
2023-03-15T21:45:59.975Z,3.17
2023-03-15T21:48:28.077Z,3.47
2023-03-15T21:50:55.484Z,2.92
2023-03-15T21:53:22.953Z,3.10
2023-03-15T21:55:50.246Z,3.13
2023-03-15T21:58:17.490Z,3.33
2023-03-15T22:00:44.680Z,3.25
2023-03-15T22:03:14.082Z,3.42
2023-03-15T22:05:41.881Z,3.40
2023-03-15T22:08:09.086Z,3.10
2023-03-15T22:10:36.359Z,3.20
2023-03-15T22:13:03.846Z,3.40
2023-03-15T22:15:31.107Z,3.20
2023-03-15T22:17:58.428Z,3.40
2023-03-15T22:20:26.088Z,3.60
2023-03-15T22:22:53.618Z,3.30
2023-03-15T22:25:21.288Z,2.97
2023-03-15T22:27:48.528Z,3.53
2023-03-15T22:30:17.795Z,3.28
2023-03-15T22:32:45.415Z,3.03
2023-03-15T22:35:13.607Z,3.30
2023-03-15T22:37:40.909Z,3.35
2023-03-15T22:40:09.296Z,3.58
2023-03-15T22:42:36.519Z,3.40
2023-03-15T22:45:03.996Z,3.60
2023-03-15T22:47:31.171Z,2.70
2023-03-15T22:50:00.935Z,3.50
2023-03-15T22:52:28.314Z,3.15
2023-03-15T22:54:55.626Z,3.55
2023-03-15T22:57:22.933Z,3.65
2023-03-15T22:59:50.149Z,3.50
2023-03-15T23:02:17.429Z,3.25
2023-03-15T23:04:45.912Z,3.53
2023-03-15T23:07:13.491Z,3.25
2023-03-15T23:09:40.787Z,3.65
2023-03-15T23:12:08.227Z,3.50
2023-03-15T23:14:35.708Z,3.30
2023-03-15T23:17:03.675Z,3.40
2023-03-15T23:19:34.134Z,3.15
2023-03-15T23:22:04.865Z,3.80
2023-03-15T23:24:35.953Z,3.50
2023-03-15T23:27:03.612Z,3.05
2023-03-15T23:29:47.094Z,3.05
2023-03-15T23:32:20.800Z,3.25
2023-03-15T23:34:48.091Z,3.00
2023-03-15T23:37:15.483Z,3.70
2023-03-15T23:39:42.880Z,2.88
2023-03-15T23:42:10.397Z,3.10
2023-03-15T23:44:37.872Z,3.55
2023-03-15T23:47:07.985Z,2.83
2023-03-15T23:49:35.334Z,3.15
2023-03-15T23:52:05.436Z,3.08
2023-03-15T23:54:39.343Z,3.60
2023-03-15T23:57:07.427Z,3.22
2023-03-15T23:59:35.969Z,3.35
